createdAt,value
2022-11-01T00:00:38.628Z,9.66
2022-11-01T00:03:11.034Z,9.64
2022-11-01T00:05:42.974Z,9.62
2022-11-01T00:08:14.976Z,9.59
2022-11-01T00:10:47.178Z,9.59
2022-11-01T00:13:21.578Z,9.56
2022-11-01T00:15:53.024Z,9.54
2022-11-01T00:18:25.776Z,9.51
2022-11-01T00:20:58.341Z,9.50
2022-11-01T00:23:30.930Z,9.49
2022-11-01T00:26:05.041Z,9.47
2022-11-01T00:28:40.929Z,9.45
2022-11-01T00:31:15.267Z,9.44
2022-11-01T00:33:48.618Z,9.44
2022-11-01T00:36:22.757Z,9.42
2022-11-01T00:38:55.164Z,9.42
2022-11-01T00:41:28.183Z,9.41
2022-11-01T00:44:03.690Z,9.39
2022-11-01T00:46:35.581Z,9.38
2022-11-01T00:49:08.059Z,9.36
2022-11-01T00:51:39.160Z,9.34
2022-11-01T00:54:11.762Z,9.34
2022-11-01T00:56:44.846Z,9.32
2022-11-01T00:59:21.740Z,9.28
2022-11-01T01:01:55.580Z,9.26
2022-11-01T01:04:29.294Z,9.23
2022-11-01T01:07:02.406Z,9.20
2022-11-01T01:09:36.190Z,9.19
2022-11-01T01:12:09.776Z,9.18
2022-11-01T01:14:45.348Z,9.16
2022-11-01T01:17:17.470Z,9.15
2022-11-01T01:19:50.252Z,9.15
2022-11-01T01:22:24.262Z,9.14
2022-11-01T01:24:57.898Z,9.09
2022-11-01T01:27:32.197Z,9.03
2022-11-01T01:30:05.681Z,9.02
2022-11-01T01:32:36.574Z,8.98
2022-11-01T01:35:07.889Z,8.93
2022-11-01T01:37:38.419Z,8.90
2022-11-01T01:40:10.741Z,8.87
2022-11-01T01:42:44.343Z,8.85
2022-11-01T01:45:31.091Z,8.82
2022-11-01T01:48:09.565Z,8.78
2022-11-01T01:50:45.040Z,8.75
2022-11-01T01:53:20.003Z,8.73
2022-11-01T01:55:56.726Z,8.70
2022-11-01T01:58:32.032Z,8.67
2022-11-01T02:01:05.004Z,8.63
2022-11-01T02:03:37.027Z,8.59
2022-11-01T02:06:13.680Z,8.58
2022-11-01T02:08:48.998Z,8.56
2022-11-01T02:11:20.674Z,8.54
2022-11-01T02:13:51.818Z,8.55
2022-11-01T02:16:50.177Z,8.51
2022-11-01T02:19:59.007Z,8.50
2022-11-01T02:22:40.083Z,8.49
2022-11-01T02:25:44.790Z,8.51
2022-11-01T02:28:42.174Z,8.50
2022-11-01T02:31:29.825Z,8.51
2022-11-01T02:34:07.969Z,8.50
2022-11-01T02:36:45.986Z,8.51
2022-11-01T02:39:23.207Z,8.50
2022-11-01T02:42:01.623Z,8.50
2022-11-01T02:44:37.796Z,8.47
2022-11-01T02:47:07.034Z,8.49
2022-11-01T02:49:43.230Z,8.48
2022-11-01T02:52:17.075Z,8.48
2022-11-01T02:54:49.425Z,8.49
2022-11-01T02:57:32.776Z,8.47
2022-11-01T03:00:08.793Z,8.44
2022-11-01T03:02:44.464Z,8.40
2022-11-01T03:05:26.232Z,8.35
2022-11-01T03:08:01.494Z,8.34
2022-11-01T03:10:37.368Z,8.31
2022-11-01T03:13:18.563Z,8.29
2022-11-01T03:16:03.406Z,8.26
2022-11-01T03:18:38.565Z,8.23
2022-11-01T03:21:18.529Z,8.20
2022-11-01T03:23:54.198Z,8.18
2022-11-01T03:26:30.514Z,8.13
2022-11-01T03:29:04.279Z,8.09
2022-11-01T03:31:37.862Z,8.05
2022-11-01T03:34:10.161Z,8.01
2022-11-01T03:36:48.766Z,7.99
2022-11-01T03:39:23.678Z,7.96
2022-11-01T03:41:58.812Z,7.96
2022-11-01T03:44:33.775Z,7.95
2022-11-01T03:47:04.410Z,7.93
2022-11-01T03:49:34.827Z,7.93
2022-11-01T03:52:08.365Z,7.91
2022-11-01T03:54:38.821Z,7.88
2022-11-01T03:57:09.587Z,7.86
2022-11-01T03:59:40.290Z,7.82
2022-11-01T04:05:01.108Z,7.69
2022-11-01T04:07:35.770Z,7.72
2022-11-01T04:10:06.422Z,7.70
2022-11-01T04:12:36.982Z,7.68
2022-11-01T04:15:20.750Z,7.66
2022-11-01T04:18:05.903Z,7.68
2022-11-01T04:20:36.926Z,7.69
2022-11-01T04:23:10.929Z,7.67
2022-11-01T04:25:41.527Z,7.66
2022-11-01T04:28:12.015Z,7.64
2022-11-01T04:30:42.458Z,7.61
2022-11-01T04:33:13.053Z,7.59
2022-11-01T04:35:43.818Z,7.59
2022-11-01T04:38:17.763Z,7.59
2022-11-01T04:40:48.284Z,7.59
2022-11-01T04:43:19.253Z,7.58
2022-11-01T04:45:57.162Z,7.54
2022-11-01T04:48:28.093Z,7.53
2022-11-01T04:50:58.585Z,7.51
2022-11-01T04:53:32.149Z,7.50
2022-11-01T04:56:04.371Z,7.49
2022-11-01T04:58:41.442Z,7.48
2022-11-01T05:01:15.655Z,7.49
2022-11-01T05:03:46.698Z,7.49
2022-11-01T05:06:17.169Z,7.50
2022-11-01T05:08:50.419Z,7.52
2022-11-01T05:11:25.756Z,7.54
2022-11-01T05:13:56.592Z,7.56
2022-11-01T05:16:27.039Z,7.58
2022-11-01T05:18:57.746Z,7.59
2022-11-01T05:21:28.231Z,7.61
2022-11-01T05:24:01.430Z,7.62
2022-11-01T05:26:31.923Z,7.62
2022-11-01T05:29:08.828Z,7.63
2022-11-01T05:31:40.222Z,7.67
2022-11-01T05:34:10.861Z,7.70
2022-11-01T05:36:41.341Z,7.76
2022-11-01T05:39:14.582Z,7.82
2022-11-01T05:41:45.062Z,7.89
2022-11-01T05:44:15.587Z,7.94
2022-11-01T05:46:46.115Z,8.06
2022-11-01T05:49:16.699Z,8.16
2022-11-01T05:51:47.153Z,8.27
2022-11-01T05:54:20.429Z,8.38
2022-11-01T05:56:50.874Z,8.51
2022-11-01T05:59:21.521Z,8.67
2022-11-01T06:01:52.057Z,8.82
2022-11-01T06:04:25.093Z,8.97
2022-11-01T06:06:55.481Z,9.13
2022-11-01T06:09:28.731Z,9.31
2022-11-01T06:11:59.191Z,9.48
2022-11-01T06:14:29.775Z,9.66
2022-11-01T06:17:00.395Z,9.87
2022-11-01T06:19:30.982Z,10.09
2022-11-01T06:22:01.644Z,10.29
2022-11-01T06:24:34.853Z,10.51
2022-11-01T06:27:09.846Z,10.73
2022-11-01T06:29:42.169Z,10.95
2022-11-01T06:32:12.667Z,11.18
2022-11-01T06:34:44.975Z,11.42
2022-11-01T06:37:15.584Z,11.66
2022-11-01T06:39:48.793Z,11.90
2022-11-01T06:42:19.312Z,12.13
2022-11-01T06:44:49.891Z,12.48
2022-11-01T06:47:20.493Z,12.74
2022-11-01T06:49:51.108Z,13.02
2022-11-01T06:52:21.562Z,13.34
2022-11-01T06:54:54.868Z,13.66
2022-11-01T06:57:25.358Z,13.98
2022-11-01T06:59:55.872Z,14.31
2022-11-01T07:02:29.730Z,14.65
2022-11-01T07:05:00.757Z,15.03
2022-11-01T07:07:31.533Z,15.44
2022-11-01T07:10:04.757Z,15.85
2022-11-01T07:12:35.204Z,16.22
2022-11-01T07:15:06.034Z,16.54
2022-11-01T07:17:36.745Z,16.79
2022-11-01T07:20:08.192Z,16.98
2022-11-01T07:22:38.641Z,17.15
2022-11-01T07:25:12.351Z,17.27
2022-11-01T07:27:43.038Z,17.34
2022-11-01T07:30:14.799Z,17.41
2022-11-01T07:32:45.247Z,17.41
2022-11-01T07:35:15.872Z,17.47
2022-11-01T07:37:46.333Z,17.53
2022-11-01T07:40:19.629Z,17.59
2022-11-01T07:42:50.191Z,17.67
2022-11-01T07:45:20.973Z,17.75
2022-11-01T07:47:51.487Z,17.81
2022-11-01T07:50:22.318Z,17.85
2022-11-01T07:53:02.414Z,17.87
2022-11-01T07:55:35.574Z,17.88
2022-11-01T07:58:06.918Z,17.86
2022-11-01T08:00:38.500Z,17.90
2022-11-01T08:03:12.456Z,17.91
2022-11-01T08:05:43.621Z,17.90
2022-11-01T08:08:14.661Z,17.93
2022-11-01T08:10:48.486Z,17.93
2022-11-01T08:13:21.406Z,17.95
2022-11-01T08:15:53.664Z,17.96
2022-11-01T08:18:25.591Z,18.02
2022-11-01T08:20:56.192Z,18.05
2022-11-01T08:23:26.699Z,18.09
2022-11-01T08:26:00.487Z,18.11
2022-11-01T08:28:30.981Z,18.12
2022-11-01T08:31:01.757Z,18.13
2022-11-01T08:33:32.258Z,18.19
2022-11-01T08:36:02.991Z,18.24
2022-11-01T08:38:33.504Z,18.32
2022-11-01T08:41:06.825Z,18.41
2022-11-01T08:43:40.503Z,18.51
2022-11-01T08:46:11.947Z,18.56
2022-11-01T08:48:42.426Z,18.71
2022-11-01T08:51:12.960Z,18.77
2022-11-01T08:53:43.896Z,18.83
2022-11-01T08:56:17.072Z,18.89
2022-11-01T08:58:47.567Z,18.97
2022-11-01T09:01:18.339Z,19.01
2022-11-01T09:03:48.942Z,19.04
2022-11-01T09:06:19.768Z,19.10
2022-11-01T09:08:50.455Z,19.13
2022-11-01T09:11:24.834Z,19.20
2022-11-01T09:13:58.020Z,19.26
2022-11-01T09:16:28.651Z,19.32
2022-11-01T09:19:02.014Z,19.36
2022-11-01T09:21:32.873Z,19.40
2022-11-01T09:24:04.161Z,19.42
2022-11-01T09:26:37.305Z,19.50
2022-11-01T09:29:08.037Z,19.55
2022-11-01T09:31:38.627Z,19.58
2022-11-01T09:34:09.110Z,19.62
2022-11-01T09:36:39.641Z,19.66
2022-11-01T09:39:10.067Z,19.71
2022-11-01T09:41:48.076Z,19.76
2022-11-01T09:44:22.253Z,19.81
2022-11-01T09:46:59.549Z,19.87
2022-11-01T09:49:37.277Z,19.92
2022-11-01T09:52:08.535Z,19.98
2022-11-01T09:54:40.383Z,20.05
2022-11-01T09:57:22.619Z,20.10
2022-11-01T10:00:04.667Z,20.14
2022-11-01T10:03:03.312Z,20.17
2022-11-01T10:05:51.619Z,20.21
2022-11-01T10:08:37.487Z,20.24
2022-11-01T10:11:20.047Z,20.28
2022-11-01T10:14:01.649Z,20.34
2022-11-01T10:16:38.877Z,20.38
2022-11-01T10:19:15.485Z,20.46
2022-11-01T10:21:50.239Z,20.50
2022-11-01T10:24:30.896Z,20.57
2022-11-01T10:27:08.442Z,20.62
2022-11-01T10:29:50.596Z,20.72
2022-11-01T10:32:31.247Z,20.80
2022-11-01T10:35:07.354Z,20.87
2022-11-01T10:37:52.361Z,20.97
2022-11-01T10:40:41.229Z,21.10
2022-11-01T10:43:16.290Z,21.22
2022-11-01T10:45:53.071Z,21.38
2022-11-01T10:48:32.842Z,21.50
2022-11-01T10:51:06.598Z,21.60
2022-11-01T10:53:41.385Z,21.73
2022-11-01T10:56:24.045Z,21.84
2022-11-01T10:59:01.691Z,21.98
2022-11-01T11:01:43.202Z,22.06
2022-11-01T11:04:18.133Z,22.19
2022-11-01T11:06:49.357Z,22.27
2022-11-01T11:09:27.583Z,22.39
2022-11-01T11:12:03.121Z,22.50
2022-11-01T11:14:36.396Z,22.61
2022-11-01T11:17:18.247Z,22.72
2022-11-01T11:19:49.947Z,22.84
2022-11-01T11:22:20.901Z,22.94
2022-11-01T11:24:53.076Z,23.07
2022-11-01T11:27:26.197Z,23.16
2022-11-01T11:29:58.984Z,23.29
2022-11-01T11:32:35.671Z,23.42
2022-11-01T11:35:13.468Z,23.53
2022-11-01T11:37:55.855Z,23.64
2022-11-01T11:40:27.386Z,23.74
2022-11-01T11:42:59.653Z,23.84
2022-11-01T11:45:31.798Z,23.90
2022-11-01T11:48:19.327Z,24.05
2022-11-01T11:50:50.021Z,24.14
2022-11-01T11:53:23.645Z,24.23
2022-11-01T11:55:58.379Z,24.31
2022-11-01T11:58:33.103Z,24.40
2022-11-01T12:01:07.194Z,24.45
2022-11-01T12:03:50.555Z,24.50
2022-11-01T12:06:24.184Z,24.56
2022-11-01T12:08:56.796Z,24.61
2022-11-01T12:11:29.048Z,24.65
2022-11-01T12:14:23.203Z,24.67
2022-11-01T12:16:54.132Z,24.76
2022-11-01T12:19:29.536Z,24.77
2022-11-01T12:22:03.417Z,24.78
2022-11-01T12:24:40.182Z,24.74
2022-11-01T12:27:19.149Z,24.66
2022-11-01T12:29:54.417Z,24.49
2022-11-01T12:32:30.802Z,24.32
2022-11-01T12:35:07.809Z,24.12
2022-11-01T12:37:50.264Z,23.94
2022-11-01T12:40:25.180Z,23.78
2022-11-01T12:43:01.437Z,23.64
2022-11-01T12:45:37.530Z,23.51
2022-11-01T12:48:14.464Z,23.37
2022-11-01T12:50:53.349Z,23.27
2022-11-01T12:53:27.718Z,23.18
2022-11-01T12:56:00.902Z,23.08
2022-11-01T12:58:35.220Z,22.98
2022-11-01T13:01:27.496Z,22.89
2022-11-01T13:04:10.310Z,22.80
2022-11-01T13:07:06.474Z,22.74
2022-11-01T13:09:48.741Z,22.66
2022-11-01T13:12:26.449Z,22.58
2022-11-01T13:15:06.641Z,22.54
2022-11-01T13:17:43.496Z,22.49
2022-11-01T13:20:41.332Z,22.44
2022-11-01T13:23:22.186Z,22.37
2022-11-01T13:26:01.934Z,22.34
2022-11-01T13:28:49.179Z,22.28
2022-11-01T13:31:33.741Z,22.25
2022-11-01T13:34:16.867Z,22.21
2022-11-01T13:36:56.883Z,22.16
2022-11-01T13:39:40.747Z,22.13
2022-11-01T13:42:16.374Z,22.08
2022-11-01T13:44:50.865Z,22.04
2022-11-01T13:50:54.716Z,21.95
2022-11-01T13:53:34.294Z,21.91
2022-11-01T13:56:14.433Z,21.87
2022-11-01T13:58:44.980Z,21.82
2022-11-01T14:01:37.913Z,21.77
2022-11-01T14:04:49.885Z,21.72
2022-11-01T14:07:24.325Z,21.66
2022-11-01T14:09:56.060Z,21.62
2022-11-01T14:12:43.349Z,21.57
2022-11-01T14:15:39.375Z,21.51
2022-11-01T14:18:14.704Z,21.46
2022-11-01T14:20:53.711Z,21.40
2022-11-01T14:23:52.500Z,21.33
2022-11-01T14:27:05.195Z,21.22
2022-11-01T14:29:36.785Z,21.15
2022-11-01T14:32:08.984Z,21.08
2022-11-01T14:34:39.789Z,20.99
2022-11-01T14:37:23.319Z,20.93
2022-11-01T14:40:04.841Z,20.84
2022-11-01T14:42:45.671Z,20.77
2022-11-01T14:45:35.216Z,20.68
2022-11-01T14:48:13.311Z,20.59
2022-11-01T14:50:55.316Z,20.50
2022-11-01T14:53:31.472Z,20.41
2022-11-01T14:56:22.080Z,20.34
2022-11-01T14:58:52.526Z,20.24
2022-11-01T15:01:25.301Z,20.17
2022-11-01T15:04:00.213Z,20.10
2022-11-01T15:06:32.649Z,20.03
2022-11-01T15:09:05.570Z,19.95
2022-11-01T15:11:39.313Z,19.88
2022-11-01T15:14:11.699Z,19.80
2022-11-01T15:16:45.645Z,19.72
2022-11-01T15:19:19.364Z,19.63
2022-11-01T15:21:51.174Z,19.56
2022-11-01T15:24:24.820Z,19.47
2022-11-01T15:26:58.612Z,19.37
2022-11-01T15:29:29.754Z,19.28
2022-11-01T15:32:03.007Z,19.18
2022-11-01T15:34:35.285Z,19.05
2022-11-01T15:37:18.790Z,18.97
2022-11-01T15:39:49.610Z,18.87
2022-11-01T15:42:27.726Z,18.77
2022-11-01T15:44:58.179Z,18.69
2022-11-01T15:47:31.061Z,18.60
2022-11-01T15:50:05.811Z,18.51
2022-11-01T15:52:38.974Z,18.43
2022-11-01T15:55:15.705Z,18.34
2022-11-01T15:57:52.771Z,18.22
2022-11-01T16:00:33.013Z,18.12
2022-11-01T16:03:07.796Z,18.03
2022-11-01T16:05:44.986Z,17.93
2022-11-01T16:08:22.449Z,17.84
2022-11-01T16:10:53.088Z,17.75
2022-11-01T16:13:26.498Z,17.67
2022-11-01T16:16:08.644Z,17.56
2022-11-01T16:18:40.504Z,17.50
2022-11-01T16:21:32.026Z,17.43
2022-11-01T16:24:09.462Z,17.36
2022-11-01T16:26:55.628Z,17.26
2022-11-01T16:29:45.018Z,17.20
2022-11-01T16:32:22.057Z,17.11
2022-11-01T16:34:53.006Z,17.06
2022-11-01T16:37:24.175Z,17.00
2022-11-01T16:39:55.041Z,16.92
2022-11-01T16:42:26.370Z,16.85
2022-11-01T16:45:00.210Z,16.76
2022-11-01T16:47:31.344Z,16.69
2022-11-01T16:50:01.911Z,16.63
2022-11-01T16:52:34.097Z,16.57
2022-11-01T16:55:04.633Z,16.51
2022-11-01T16:57:35.085Z,16.43
2022-11-01T17:00:15.103Z,16.39
2022-11-01T17:02:45.626Z,16.33
2022-11-01T17:05:23.746Z,16.29
2022-11-01T17:07:55.561Z,16.20
2022-11-01T17:10:31.220Z,16.15
2022-11-01T17:13:04.254Z,16.07
2022-11-01T17:15:42.747Z,16.02
2022-11-01T17:18:17.794Z,15.93
2022-11-01T17:20:52.328Z,15.86
2022-11-01T17:23:26.577Z,15.81
2022-11-01T17:25:58.170Z,15.74
2022-11-01T17:28:28.887Z,15.67
2022-11-01T17:31:02.283Z,15.61
2022-11-01T17:33:32.838Z,15.53
2022-11-01T17:36:04.098Z,15.46
2022-11-01T17:38:37.186Z,15.37
2022-11-01T17:41:09.717Z,15.30
2022-11-01T17:43:40.376Z,15.21
2022-11-01T17:46:17.995Z,15.13
2022-11-01T17:48:48.963Z,15.04
2022-11-01T17:51:19.816Z,14.97
2022-11-01T17:53:50.481Z,14.91
2022-11-01T17:56:21.035Z,14.82
2022-11-01T17:58:53.908Z,14.75
2022-11-01T18:01:27.295Z,14.68
2022-11-01T18:03:57.943Z,14.61
2022-11-01T18:06:28.687Z,14.56
2022-11-01T18:08:59.210Z,14.52
2022-11-01T18:11:42.619Z,14.48
2022-11-01T18:14:18.004Z,14.41
2022-11-01T18:16:56.650Z,14.35
2022-11-01T18:19:44.225Z,14.29
2022-11-01T18:22:23.837Z,14.23
2022-11-01T18:25:00.425Z,14.18
2022-11-01T18:27:37.826Z,14.12
2022-11-01T18:30:17.785Z,14.08
2022-11-01T18:32:57.777Z,14.04
2022-11-01T18:35:35.471Z,13.65
2022-11-01T18:38:23.421Z,12.66
2022-11-01T18:41:00.730Z,11.70
2022-11-01T18:43:34.411Z,10.90
2022-11-01T18:46:25.798Z,10.33
2022-11-01T18:49:03.881Z,9.86
2022-11-01T18:51:38.562Z,9.59
2022-11-01T18:54:30.506Z,9.36
2022-11-01T18:57:02.918Z,9.17
2022-11-01T18:59:36.763Z,9.01
2022-11-01T19:02:17.423Z,8.94
2022-11-01T19:04:53.456Z,8.97
2022-11-01T19:07:27.189Z,8.97
2022-11-01T19:10:04.254Z,8.95
2022-11-01T19:12:39.611Z,8.99
2022-11-01T19:15:23.411Z,9.18
2022-11-01T19:18:00.719Z,9.45
2022-11-01T19:20:37.926Z,9.71
2022-11-01T19:23:17.337Z,9.98
2022-11-01T19:25:48.317Z,10.23
2022-11-01T19:28:28.581Z,10.46
2022-11-01T19:31:01.707Z,10.67
2022-11-01T19:33:37.468Z,10.85
2022-11-01T19:36:24.976Z,11.03
2022-11-01T19:38:56.334Z,11.16
2022-11-01T19:41:33.470Z,11.29
2022-11-01T19:44:14.369Z,11.39
2022-11-01T19:46:44.913Z,11.47
2022-11-01T19:49:26.583Z,11.54
2022-11-01T19:52:15.156Z,11.61
2022-11-01T19:54:55.375Z,11.65
2022-11-01T19:57:33.490Z,11.67
2022-11-01T20:00:19.214Z,11.68
2022-11-01T20:02:50.947Z,11.68
2022-11-01T20:05:29.489Z,11.67
2022-11-01T20:08:18.543Z,11.64
2022-11-01T20:10:49.135Z,11.61
2022-11-01T20:13:19.950Z,11.60
2022-11-01T20:15:50.427Z,11.60
2022-11-01T20:18:21.068Z,11.58
2022-11-01T20:20:53.099Z,11.56
2022-11-01T20:23:27.252Z,11.55
2022-11-01T20:25:58.494Z,11.54
2022-11-01T20:28:29.176Z,11.51
2022-11-01T20:30:59.669Z,11.47
2022-11-01T20:33:30.315Z,11.46
2022-11-01T20:36:01.188Z,11.40
2022-11-01T20:38:34.532Z,11.36
2022-11-01T20:41:05.012Z,11.33
2022-11-01T20:43:35.622Z,11.30
2022-11-01T20:46:06.068Z,11.27
2022-11-01T20:48:36.679Z,11.23
2022-11-01T20:51:07.457Z,11.20
2022-11-01T20:53:40.883Z,11.17
2022-11-01T20:56:12.379Z,11.11
2022-11-01T20:58:42.987Z,11.09
2022-11-01T21:01:17.492Z,11.05
2022-11-01T21:03:48.162Z,11.00
2022-11-01T21:06:20.598Z,10.96
2022-11-01T21:08:53.762Z,10.92
2022-11-01T21:11:44.268Z,10.89
2022-11-01T21:14:18.632Z,10.86
2022-11-01T21:16:50.162Z,10.85
2022-11-01T21:19:24.305Z,10.83
2022-11-01T21:21:56.782Z,10.82
2022-11-01T21:24:34.404Z,10.80
2022-11-01T21:27:23.120Z,10.76
2022-11-01T21:29:54.985Z,10.70
2022-11-01T21:32:30.182Z,10.66
2022-11-01T21:35:01.293Z,10.63
2022-11-01T21:37:33.349Z,10.59
2022-11-01T21:40:24.127Z,10.56
2022-11-01T21:42:54.604Z,10.55
2022-11-01T21:45:32.765Z,10.51
2022-11-01T21:48:05.875Z,10.46
2022-11-01T21:50:36.560Z,10.44
2022-11-01T21:53:07.148Z,10.39
2022-11-01T21:55:40.333Z,10.34
2022-11-01T21:58:10.900Z,10.29
2022-11-01T22:00:41.412Z,10.27
2022-11-01T22:03:11.886Z,10.23
2022-11-01T22:05:42.436Z,10.22
2022-11-01T22:08:13.010Z,10.22
2022-11-01T22:10:46.134Z,10.21
2022-11-01T22:13:16.599Z,10.20
2022-11-01T22:15:47.188Z,10.20
2022-11-01T22:18:22.411Z,10.20
2022-11-01T22:20:55.367Z,10.19
2022-11-01T22:23:25.792Z,10.15
2022-11-01T22:25:58.971Z,10.13
2022-11-01T22:28:29.410Z,10.07
2022-11-01T22:31:00.033Z,10.03
2022-11-01T22:33:30.495Z,9.98
2022-11-01T22:36:01.105Z,9.94
2022-11-01T22:38:37.742Z,9.90
2022-11-01T22:41:14.979Z,9.85
2022-11-01T22:43:49.073Z,9.78
2022-11-01T22:46:23.312Z,9.71
2022-11-01T22:48:55.835Z,9.66
2022-11-01T22:51:32.827Z,9.61
2022-11-01T22:54:03.389Z,9.56
2022-11-01T22:56:36.649Z,9.50
2022-11-01T22:59:07.368Z,9.46
2022-11-01T23:01:38.139Z,9.42
2022-11-01T23:04:22.077Z,9.40
2022-11-01T23:06:52.654Z,9.39
2022-11-01T23:09:23.926Z,9.36
2022-11-01T23:12:11.354Z,9.32
2022-11-01T23:14:45.715Z,9.29
2022-11-01T23:17:25.141Z,9.28
2022-11-01T23:19:59.151Z,9.25
2022-11-01T23:22:34.376Z,9.22
2022-11-01T23:25:06.559Z,9.21
2022-11-01T23:27:39.996Z,9.18
2022-11-01T23:30:11.757Z,9.17
2022-11-01T23:32:42.793Z,9.16
2022-11-01T23:35:17.159Z,9.14
2022-11-01T23:37:48.104Z,9.11
2022-11-01T23:40:21.344Z,9.10
2022-11-01T23:42:54.616Z,9.07
2022-11-01T23:45:31.792Z,9.05
2022-11-01T23:48:04.099Z,9.01
2022-11-01T23:50:37.185Z,8.99
2022-11-01T23:53:12.002Z,8.95
2022-11-01T23:55:45.892Z,8.94
2022-11-01T23:58:22.532Z,8.93
